Terminal Aerodrome Forecast
Issued by NWS

Home | Current Version | Previous Version | Graphics & Text | Print | Product List | Glossary On
Versions: 1 2 3 4 5 6 7 8 9 10 11 12 13 14 15 16
000
FTUS43 KMPX 290925 AAA
TAFAXN
TAF AMD
KAXN 290925Z 2909/3006 00000KT 6SM BR SKC
      TEMPO 2909/2913 1SM BR FEW004
     FM291500 04008KT P6SM BKN120=

USA.gov is the U.S. government's official web portal to all federal, state and local government web resources and services.